PWSweather.com
Personal Weather Stations
Station Observations
MENWDWX1
Menstrie, ScotlandGB

MenstrieScotlandGB

Lat: 56.148322, Lon: -3.85483

Elevation: 62

Station Type: Davis Vantage Pro 2

High Low Average
Temperature 51.1°F10.6°C 39.7°F4.3°C 44.3°F6.8°C
Dew Point 43.8°F6.6°C 33.7°F0.9°C 38.2°F3.4°C
Winds 18.4 mph 29.6 kmh Calm Calm 4.0 mph S6.4 kmh S
Wind Gusts 23.0 mph37.0 kmh -- 7.0 mph11.3 kmh
Humidity 83% 74% 79%
Pressure 29.74 in1007.1 mb 29.40 in995.6 mb -
Precipitation 0.41 in10.4 mm - -
Hour Temp Dew Point Humidity Winds Wind Gusts Pressure Precip Precip Rate Daily Precip Total
12:00 AM 39.8°F4.3°C 33.8°F1.0°C 79% 1.2 mph SE1.9 kmh SE 3.5 mph5.6 kmh 29.74 in1007.1 mb - 0.00 in0.0 mm 0.00 in0.0 mm
12:05 AM 39.7°F4.3°C 33.7°F0.9°C 79% 2.3 mph SE3.7 kmh SE 3.5 mph5.6 kmh 29.74 in1007.1 mb - 0.00 in0.0 mm 0.00 in0.0 mm
12:10 AM 39.7°F4.3°C 33.7°F0.9°C 79% 1.2 mph SSE1.9 kmh SSE 2.3 mph3.7 kmh 29.74 in1007.1 mb - 0.00 in0.0 mm 0.00 in0.0 mm
12:15 AM 39.7°F4.3°C 33.7°F0.9°C 79% 2.3 mph S3.7 kmh S 4.6 mph7.4 kmh 29.74 in1007.1 mb - 0.00 in0.0 mm 0.00 in0.0 mm
12:20 AM 39.7°F4.3°C 33.8°F1.0°C 79% 3.5 mph S5.6 kmh S 5.8 mph9.3 kmh 29.74 in1007.1 mb - 0.00 in0.0 mm 0.00 in0.0 mm
12:25 AM 40.1°F4.5°C 34.1°F1.2°C 79% 2.3 mph SE3.7 kmh SE 3.5 mph5.6 kmh 29.74 in1007.1 mb - 0.00 in0.0 mm 0.00 in0.0 mm
12:30 AM 40.2°F4.6°C 34.2°F1.2°C 79% 3.5 mph SE5.6 kmh SE 4.6 mph7.4 kmh 29.73 in1006.8 mb - 0.00 in0.0 mm 0.00 in0.0 mm
12:35 AM 40.3°F4.6°C 34.3°F1.3°C 79% 2.3 mph SSE3.7 kmh SSE 3.5 mph5.6 kmh 29.73 in1006.8 mb - 0.00 in0.0 mm 0.00 in0.0 mm
12:40 AM 40.3°F4.6°C 34.3°F1.3°C 79% 1.2 mph SSE1.9 kmh SSE 2.3 mph3.7 kmh 29.73 in1006.8 mb - 0.00 in0.0 mm 0.00 in0.0 mm
12:45 AM 40.2°F4.6°C 34.2°F1.2°C 79% Calm Calm -- 29.73 in1006.8 mb - 0.00 in0.0 mm 0.00 in0.0 mm
12:50 AM 40.1°F4.5°C 34.1°F1.2°C 79% Calm Calm -- 29.72 in1006.4 mb - 0.00 in0.0 mm 0.00 in0.0 mm
12:55 AM 40.0°F4.4°C 34.0°F1.1°C 79% 1.2 mph SSE1.9 kmh SSE 2.3 mph3.7 kmh 29.72 in1006.4 mb - 0.01 in0.3 mm 0.01 in0.3 mm
01:00 AM 39.9°F4.4°C 33.9°F1.1°C 79% 1.2 mph SSE1.9 kmh SSE 3.5 mph5.6 kmh 29.72 in1006.4 mb - 0.00 in0.0 mm 0.01 in0.3 mm
01:05 AM 39.8°F4.3°C 33.8°F1.0°C 79% 2.3 mph SE3.7 kmh SE 3.5 mph5.6 kmh 29.72 in1006.4 mb - 0.00 in0.0 mm 0.01 in0.3 mm
01:10 AM 39.8°F4.3°C 33.8°F1.0°C 79% 1.2 mph E1.9 kmh E 1.2 mph1.9 kmh 29.72 in1006.4 mb - 0.00 in0.0 mm 0.01 in0.3 mm
01:15 AM 39.8°F4.3°C 34.2°F1.2°C 80% 1.2 mph E1.9 kmh E 3.5 mph5.6 kmh 29.71 in1006.1 mb - 0.00 in0.0 mm 0.01 in0.3 mm
01:20 AM 40.3°F4.6°C 34.6°F1.4°C 80% 1.2 mph E1.9 kmh E 1.2 mph1.9 kmh 29.71 in1006.1 mb - 0.00 in0.0 mm 0.01 in0.3 mm
01:25 AM 40.3°F4.6°C 34.6°F1.4°C 80% Calm Calm -- 29.70 in1005.8 mb - 0.00 in0.0 mm 0.01 in0.3 mm
01:30 AM 40.1°F4.5°C 34.4°F1.3°C 80% Calm Calm -- 29.70 in1005.8 mb - 0.00 in0.0 mm 0.01 in0.3 mm
01:35 AM 39.9°F4.4°C 34.3°F1.3°C 80% Calm Calm -- 29.70 in1005.8 mb - 0.00 in0.0 mm 0.01 in0.3 mm
01:40 AM 39.8°F4.3°C 34.1°F1.2°C 80% Calm Calm -- 29.70 in1005.8 mb - 0.00 in0.0 mm 0.01 in0.3 mm
01:45 AM 39.8°F4.3°C 34.4°F1.3°C 81% 2.3 mph WSW3.7 kmh WSW 3.5 mph5.6 kmh 29.70 in1005.8 mb - 0.00 in0.0 mm 0.01 in0.3 mm
01:50 AM 40.0°F4.4°C 34.6°F1.4°C 81% 2.3 mph WSW3.7 kmh WSW 4.6 mph7.4 kmh 29.69 in1005.4 mb - 0.00 in0.0 mm 0.01 in0.3 mm
01:55 AM 40.2°F4.6°C 34.8°F1.6°C 81% 3.5 mph WSW5.6 kmh WSW 8.1 mph13.0 kmh 29.69 in1005.4 mb - 0.00 in0.0 mm 0.01 in0.3 mm
02:00 AM 40.2°F4.6°C 34.8°F1.6°C 81% 2.3 mph WSW3.7 kmh WSW 3.5 mph5.6 kmh 29.68 in1005.1 mb - 0.00 in0.0 mm 0.01 in0.3 mm
02:05 AM 40.3°F4.6°C 34.9°F1.6°C 81% 3.5 mph WSW5.6 kmh WSW 3.5 mph5.6 kmh 29.68 in1005.1 mb - 0.00 in0.0 mm 0.01 in0.3 mm
02:10 AM 40.3°F4.6°C 35.2°F1.8°C 82% 2.3 mph WSW3.7 kmh WSW 5.8 mph9.3 kmh 29.68 in1005.1 mb - 0.00 in0.0 mm 0.01 in0.3 mm
02:15 AM 40.3°F4.6°C 35.2°F1.8°C 82% 3.5 mph SW5.6 kmh SW 6.9 mph11.1 kmh 29.68 in1005.1 mb - 0.00 in0.0 mm 0.01 in0.3 mm
02:20 AM 40.6°F4.8°C 35.5°F1.9°C 82% 4.6 mph SW7.4 kmh SW 5.8 mph9.3 kmh 29.67 in1004.7 mb - 0.01 in0.3 mm 0.02 in0.5 mm
02:25 AM 40.8°F4.9°C 35.7°F2.1°C 82% 2.3 mph SW3.7 kmh SW 3.5 mph5.6 kmh 29.67 in1004.7 mb - 0.00 in0.0 mm 0.02 in0.5 mm
02:30 AM 40.9°F4.9°C 35.8°F2.1°C 82% 3.5 mph SW5.6 kmh SW 4.6 mph7.4 kmh 29.66 in1004.4 mb - 0.00 in0.0 mm 0.02 in0.5 mm
02:35 AM 41.0°F5.0°C 35.9°F2.2°C 82% 3.5 mph SW5.6 kmh SW 8.1 mph13.0 kmh 29.66 in1004.4 mb - 0.00 in0.0 mm 0.02 in0.5 mm
02:40 AM 41.2°F5.1°C 36.1°F2.3°C 82% 2.3 mph SW3.7 kmh SW 3.5 mph5.6 kmh 29.66 in1004.4 mb - 0.00 in0.0 mm 0.02 in0.5 mm
02:45 AM 41.4°F5.2°C 36.3°F2.4°C 82% Calm Calm -- 29.66 in1004.4 mb - 0.00 in0.0 mm 0.02 in0.5 mm
02:50 AM 41.4°F5.2°C 36.3°F2.4°C 82% 2.3 mph NE3.7 kmh NE 3.5 mph5.6 kmh 29.65 in1004.1 mb - 0.00 in0.0 mm 0.02 in0.5 mm
02:55 AM 41.4°F5.2°C 36.3°F2.4°C 82% 2.3 mph NE3.7 kmh NE 4.6 mph7.4 kmh 29.65 in1004.1 mb - 0.00 in0.0 mm 0.02 in0.5 mm
03:00 AM 41.6°F5.3°C 36.2°F2.3°C 81% 3.5 mph ESE5.6 kmh ESE 3.5 mph5.6 kmh 29.65 in1004.1 mb - 0.00 in0.0 mm 0.02 in0.5 mm
03:05 AM 41.8°F5.4°C 36.4°F2.4°C 81% 2.3 mph NE3.7 kmh NE 2.3 mph3.7 kmh 29.65 in1004.1 mb - 0.00 in0.0 mm 0.02 in0.5 mm
03:10 AM 41.8°F5.4°C 36.4°F2.4°C 81% 3.5 mph NE5.6 kmh NE 4.6 mph7.4 kmh 29.65 in1004.1 mb - 0.00 in0.0 mm 0.02 in0.5 mm
03:15 AM 41.8°F5.4°C 36.4°F2.4°C 81% 2.3 mph ENE3.7 kmh ENE 3.5 mph5.6 kmh 29.64 in1003.7 mb - 0.00 in0.0 mm 0.02 in0.5 mm
03:20 AM 41.8°F5.4°C 36.1°F2.3°C 80% 1.2 mph E1.9 kmh E 4.6 mph7.4 kmh 29.64 in1003.7 mb - 0.00 in0.0 mm 0.02 in0.5 mm
03:25 AM 42.2°F5.7°C 36.5°F2.5°C 80% 2.3 mph E3.7 kmh E 3.5 mph5.6 kmh 29.64 in1003.7 mb - 0.00 in0.0 mm 0.02 in0.5 mm
03:30 AM 42.3°F5.7°C 36.6°F2.6°C 80% 3.5 mph E5.6 kmh E 3.5 mph5.6 kmh 29.64 in1003.7 mb - 0.00 in0.0 mm 0.02 in0.5 mm
03:35 AM 42.3°F5.7°C 36.6°F2.6°C 80% 4.6 mph E7.4 kmh E 5.8 mph9.3 kmh 29.64 in1003.7 mb - 0.00 in0.0 mm 0.02 in0.5 mm
03:40 AM 42.4°F5.8°C 36.7°F2.6°C 80% 2.3 mph NE3.7 kmh NE 2.3 mph3.7 kmh 29.64 in1003.7 mb - 0.00 in0.0 mm 0.02 in0.5 mm
03:45 AM 42.2°F5.7°C 36.2°F2.3°C 79% Calm Calm -- 29.64 in1003.7 mb - 0.01 in0.3 mm 0.03 in0.8 mm
03:50 AM 42.2°F5.7°C 36.1°F2.3°C 79% Calm Calm -- 29.64 in1003.7 mb - 0.01 in0.3 mm 0.03 in0.8 mm
03:55 AM 42.2°F5.7°C 36.5°F2.5°C 80% Calm Calm -- 29.63 in1003.4 mb - 0.01 in0.3 mm 0.03 in0.8 mm
04:00 AM 42.2°F5.7°C 36.5°F2.5°C 80% 1.2 mph SSE1.9 kmh SSE 3.5 mph5.6 kmh 29.62 in1003.0 mb - 0.01 in0.3 mm 0.04 in1.0 mm
04:05 AM 42.1°F5.6°C 36.4°F2.4°C 80% Calm Calm -- 29.62 in1003.0 mb - 0.00 in0.0 mm 0.04 in1.0 mm
04:10 AM 41.8°F5.4°C 36.1°F2.3°C 80% Calm Calm 1.2 mph1.9 kmh 29.62 in1003.0 mb - 0.00 in0.0 mm 0.04 in1.0 mm
04:15 AM 41.7°F5.4°C 36.0°F2.2°C 80% 1.2 mph WSW1.9 kmh WSW 1.2 mph1.9 kmh 29.62 in1003.0 mb - 0.00 in0.0 mm 0.04 in1.0 mm
04:20 AM 41.8°F5.4°C 36.1°F2.3°C 80% Calm Calm 2.3 mph3.7 kmh 29.61 in1002.7 mb - 0.00 in0.0 mm 0.04 in1.0 mm
04:25 AM 42.0°F5.6°C 36.3°F2.4°C 80% 1.2 mph SE1.9 kmh SE 2.3 mph3.7 kmh 29.61 in1002.7 mb - 0.01 in0.3 mm 0.05 in1.3 mm
04:30 AM 42.0°F5.6°C 36.6°F2.6°C 81% Calm Calm 1.2 mph1.9 kmh 29.61 in1002.7 mb - 0.00 in0.0 mm 0.05 in1.3 mm
04:35 AM 42.0°F5.6°C 36.6°F2.6°C 81% Calm Calm -- 29.60 in1002.4 mb - 0.00 in0.0 mm 0.05 in1.3 mm
04:40 AM 42.0°F5.6°C 36.6°F2.6°C 81% Calm Calm 3.5 mph5.6 kmh 29.60 in1002.4 mb - 0.01 in0.3 mm 0.06 in1.5 mm
04:45 AM 41.9°F5.5°C 36.5°F2.5°C 81% Calm Calm -- 29.59 in1002.0 mb - 0.01 in0.3 mm 0.06 in1.5 mm
04:50 AM 41.8°F5.4°C 36.4°F2.4°C 81% Calm Calm -- 29.59 in1002.0 mb - 0.00 in0.0 mm 0.06 in1.5 mm
04:55 AM 41.8°F5.4°C 36.4°F2.4°C 81% Calm Calm -- 29.59 in1002.0 mb - 0.00 in0.0 mm 0.06 in1.5 mm
05:00 AM 42.1°F5.6°C 36.7°F2.6°C 81% 1.2 mph SE1.9 kmh SE 2.3 mph3.7 kmh 29.59 in1002.0 mb - 0.00 in0.0 mm 0.06 in1.5 mm
05:05 AM 42.2°F5.7°C 36.8°F2.7°C 81% 1.2 mph NE1.9 kmh NE 2.3 mph3.7 kmh 29.59 in1002.0 mb - 0.00 in0.0 mm 0.06 in1.5 mm
05:10 AM 42.1°F5.6°C 36.7°F2.6°C 81% Calm Calm -- 29.59 in1002.0 mb - 0.00 in0.0 mm 0.06 in1.5 mm
05:15 AM 42.0°F5.6°C 36.6°F2.6°C 81% Calm Calm 3.5 mph5.6 kmh 29.58 in1001.7 mb - 0.02 in0.5 mm 0.07 in1.8 mm
05:20 AM 42.2°F5.7°C 36.8°F2.7°C 81% 2.3 mph ESE3.7 kmh ESE 3.5 mph5.6 kmh 29.58 in1001.7 mb - 0.01 in0.3 mm 0.07 in1.8 mm
05:25 AM 42.7°F5.9°C 37.6°F3.1°C 82% 2.3 mph NE3.7 kmh NE 4.6 mph7.4 kmh 29.57 in1001.4 mb - 0.00 in0.0 mm 0.07 in1.8 mm
05:30 AM 42.7°F5.9°C 37.6°F3.1°C 82% 2.3 mph E3.7 kmh E 5.8 mph9.3 kmh 29.57 in1001.4 mb - 0.00 in0.0 mm 0.07 in1.8 mm
05:35 AM 42.6°F5.9°C 37.5°F3.1°C 82% 1.2 mph ENE1.9 kmh ENE 1.2 mph1.9 kmh 29.56 in1001.0 mb - 0.00 in0.0 mm 0.07 in1.8 mm
05:40 AM 42.5°F5.8°C 37.4°F3.0°C 82% 2.3 mph ENE3.7 kmh ENE 3.5 mph5.6 kmh 29.56 in1001.0 mb - 0.00 in0.0 mm 0.07 in1.8 mm
05:45 AM 42.4°F5.8°C 37.3°F2.9°C 82% 2.3 mph ENE3.7 kmh ENE 2.3 mph3.7 kmh 29.56 in1001.0 mb - 0.00 in0.0 mm 0.07 in1.8 mm
05:50 AM 42.4°F5.8°C 37.3°F2.9°C 82% 3.5 mph E5.6 kmh E 5.8 mph9.3 kmh 29.55 in1000.7 mb - 0.00 in0.0 mm 0.07 in1.8 mm
05:55 AM 42.4°F5.8°C 37.3°F2.9°C 82% 2.3 mph E3.7 kmh E 3.5 mph5.6 kmh 29.55 in1000.7 mb - 0.00 in0.0 mm 0.07 in1.8 mm
06:00 AM 42.3°F5.7°C 37.2°F2.9°C 82% 4.6 mph E7.4 kmh E 5.8 mph9.3 kmh 29.55 in1000.7 mb - 0.00 in0.0 mm 0.07 in1.8 mm
06:05 AM 42.2°F5.7°C 37.1°F2.8°C 82% 2.3 mph E3.7 kmh E 3.5 mph5.6 kmh 29.55 in1000.7 mb - 0.01 in0.3 mm 0.08 in2.0 mm
06:10 AM 42.0°F5.6°C 36.9°F2.7°C 82% 1.2 mph E1.9 kmh E 3.5 mph5.6 kmh 29.54 in1000.3 mb - 0.01 in0.3 mm 0.08 in2.0 mm
06:15 AM 41.7°F5.4°C 36.6°F2.6°C 82% 3.5 mph E5.6 kmh E 3.5 mph5.6 kmh 29.54 in1000.3 mb - 0.00 in0.0 mm 0.08 in2.0 mm
06:20 AM 41.5°F5.3°C 36.4°F2.4°C 82% 2.3 mph E3.7 kmh E 3.5 mph5.6 kmh 29.54 in1000.3 mb - 0.00 in0.0 mm 0.08 in2.0 mm
06:25 AM 41.2°F5.1°C 36.2°F2.3°C 82% 3.5 mph E5.6 kmh E 5.8 mph9.3 kmh 29.53 in1000.0 mb - 0.00 in0.0 mm 0.08 in2.0 mm
06:30 AM 41.2°F5.1°C 36.1°F2.3°C 82% 3.5 mph E5.6 kmh E 4.6 mph7.4 kmh 29.53 in1000.0 mb - 0.00 in0.0 mm 0.08 in2.0 mm
06:35 AM 41.3°F5.2°C 36.2°F2.3°C 82% 4.6 mph E7.4 kmh E 4.6 mph7.4 kmh 29.52 in999.7 mb - 0.01 in0.3 mm 0.09 in2.3 mm
06:40 AM 41.7°F5.4°C 36.6°F2.6°C 82% 3.5 mph E5.6 kmh E 3.5 mph5.6 kmh 29.52 in999.7 mb - 0.00 in0.0 mm 0.09 in2.3 mm
06:45 AM 41.7°F5.4°C 36.7°F2.6°C 82% 2.3 mph E3.7 kmh E 3.5 mph5.6 kmh 29.52 in999.7 mb - 0.00 in0.0 mm 0.09 in2.3 mm
06:50 AM 41.8°F5.4°C 36.7°F2.6°C 82% 2.3 mph ENE3.7 kmh ENE 3.5 mph5.6 kmh 29.52 in999.7 mb - 0.00 in0.0 mm 0.09 in2.3 mm
06:55 AM 42.2°F5.7°C 37.4°F3.0°C 83% 2.3 mph ESE3.7 kmh ESE 3.5 mph5.6 kmh 29.52 in999.7 mb - 0.00 in0.0 mm 0.09 in2.3 mm
07:00 AM 42.5°F5.8°C 37.7°F3.2°C 83% 3.5 mph E5.6 kmh E 5.8 mph9.3 kmh 29.52 in999.7 mb - 0.00 in0.0 mm 0.09 in2.3 mm
07:05 AM 42.4°F5.8°C 37.6°F3.1°C 83% 4.6 mph E7.4 kmh E 9.2 mph14.8 kmh 29.51 in999.3 mb - 0.00 in0.0 mm 0.09 in2.3 mm
07:10 AM 42.6°F5.9°C 37.8°F3.2°C 83% 5.8 mph E9.3 kmh E 8.1 mph13.0 kmh 29.50 in999.0 mb - 0.00 in0.0 mm 0.09 in2.3 mm
07:15 AM 42.8°F6.0°C 38.0°F3.3°C 83% 5.8 mph E9.3 kmh E 6.9 mph11.1 kmh 29.49 in998.6 mb - 0.00 in0.0 mm 0.09 in2.3 mm
07:20 AM 43.0°F6.1°C 38.2°F3.4°C 83% 1.2 mph E1.9 kmh E 2.3 mph3.7 kmh 29.50 in999.0 mb - 0.00 in0.0 mm 0.09 in2.3 mm
07:25 AM 42.8°F6.0°C 38.0°F3.3°C 83% 4.6 mph E7.4 kmh E 6.9 mph11.1 kmh 29.50 in999.0 mb - 0.00 in0.0 mm 0.09 in2.3 mm
07:30 AM 42.8°F6.0°C 38.0°F3.3°C 83% 3.5 mph E5.6 kmh E 3.5 mph5.6 kmh 29.50 in999.0 mb - 0.00 in0.0 mm 0.09 in2.3 mm
07:35 AM 42.9°F6.1°C 38.1°F3.4°C 83% 4.6 mph E7.4 kmh E 6.9 mph11.1 kmh 29.50 in999.0 mb - 0.00 in0.0 mm 0.09 in2.3 mm
07:40 AM 43.0°F6.1°C 38.2°F3.4°C 83% 3.5 mph E5.6 kmh E 6.9 mph11.1 kmh 29.49 in998.6 mb - 0.00 in0.0 mm 0.09 in2.3 mm
07:45 AM 43.0°F6.1°C 38.2°F3.4°C 83% 3.5 mph E5.6 kmh E 3.5 mph5.6 kmh 29.50 in999.0 mb - 0.00 in0.0 mm 0.09 in2.3 mm
07:50 AM 43.1°F6.2°C 38.3°F3.5°C 83% 3.5 mph E5.6 kmh E 3.5 mph5.6 kmh 29.50 in999.0 mb - 0.00 in0.0 mm 0.09 in2.3 mm
07:55 AM 43.2°F6.2°C 38.4°F3.6°C 83% Calm Calm -- 29.50 in999.0 mb - 0.01 in0.3 mm 0.10 in2.5 mm
08:00 AM 43.0°F6.1°C 38.2°F3.4°C 83% Calm Calm 1.2 mph1.9 kmh 29.50 in999.0 mb - 0.01 in0.3 mm 0.11 in2.8 mm
08:05 AM 43.2°F6.2°C 38.4°F3.6°C 83% 2.3 mph ESE3.7 kmh ESE 3.5 mph5.6 kmh 29.49 in998.6 mb - 0.01 in0.3 mm 0.12 in3.0 mm
08:10 AM 43.4°F6.3°C 38.6°F3.7°C 83% 2.3 mph E3.7 kmh E 3.5 mph5.6 kmh 29.49 in998.6 mb - 0.01 in0.3 mm 0.12 in3.0 mm
08:15 AM 43.5°F6.4°C 38.7°F3.7°C 83% 4.6 mph E7.4 kmh E 10.4 mph16.7 kmh 29.49 in998.6 mb - 0.00 in0.0 mm 0.12 in3.0 mm
08:20 AM 43.8°F6.6°C 39.0°F3.9°C 83% 2.3 mph E3.7 kmh E 3.5 mph5.6 kmh 29.49 in998.6 mb - 0.01 in0.3 mm 0.13 in3.3 mm
08:25 AM 43.9°F6.6°C 39.1°F3.9°C 83% 2.3 mph ESE3.7 kmh ESE 3.5 mph5.6 kmh 29.49 in998.6 mb - 0.01 in0.3 mm 0.14 in3.6 mm
08:30 AM 43.7°F6.5°C 38.6°F3.7°C 82% 3.5 mph ESE5.6 kmh ESE 3.5 mph5.6 kmh 29.48 in998.3 mb - 0.01 in0.3 mm 0.14 in3.6 mm
08:35 AM 43.8°F6.6°C 38.7°F3.7°C 82% 3.5 mph E5.6 kmh E 5.8 mph9.3 kmh 29.48 in998.3 mb - 0.01 in0.3 mm 0.15 in3.8 mm
08:40 AM 44.0°F6.7°C 38.9°F3.8°C 82% 5.8 mph E9.3 kmh E 9.2 mph14.8 kmh 29.48 in998.3 mb - 0.02 in0.5 mm 0.17 in4.3 mm
08:45 AM 44.1°F6.7°C 39.0°F3.9°C 82% 2.3 mph E3.7 kmh E 3.5 mph5.6 kmh 29.47 in998.0 mb - 0.02 in0.5 mm 0.17 in4.3 mm
08:50 AM 44.1°F6.7°C 39.0°F3.9°C 82% 2.3 mph ESE3.7 kmh ESE 3.5 mph5.6 kmh 29.46 in997.6 mb - 0.01 in0.3 mm 0.18 in4.6 mm
08:55 AM 44.1°F6.7°C 39.0°F3.9°C 82% 3.5 mph E5.6 kmh E 6.9 mph11.1 kmh 29.46 in997.6 mb - 0.00 in0.0 mm 0.18 in4.6 mm
09:00 AM 44.1°F6.7°C 39.0°F3.9°C 82% 3.5 mph E5.6 kmh E 6.9 mph11.1 kmh 29.45 in997.3 mb - 0.01 in0.3 mm 0.19 in4.8 mm
09:05 AM 44.2°F6.8°C 39.1°F3.9°C 82% 9.2 mph E14.8 kmh E 10.4 mph16.7 kmh 29.43 in996.6 mb - 0.00 in0.0 mm 0.19 in4.8 mm
09:10 AM 44.3°F6.8°C 39.2°F4.0°C 82% 3.5 mph ENE5.6 kmh ENE 5.8 mph9.3 kmh 29.45 in997.3 mb - 0.01 in0.3 mm 0.20 in5.1 mm
09:15 AM 44.4°F6.9°C 39.3°F4.1°C 82% 4.6 mph ENE7.4 kmh ENE 6.9 mph11.1 kmh 29.45 in997.3 mb - 0.00 in0.0 mm 0.20 in5.1 mm
09:20 AM 44.5°F6.9°C 39.3°F4.1°C 82% 3.5 mph E5.6 kmh E 4.6 mph7.4 kmh 29.45 in997.3 mb - 0.00 in0.0 mm 0.20 in5.1 mm
09:25 AM 44.6°F7.0°C 39.4°F4.1°C 82% 2.3 mph E3.7 kmh E 3.5 mph5.6 kmh 29.44 in997.0 mb - 0.00 in0.0 mm 0.20 in5.1 mm
09:30 AM 44.5°F6.9°C 39.3°F4.1°C 82% 1.2 mph E1.9 kmh E 3.5 mph5.6 kmh 29.44 in997.0 mb - 0.00 in0.0 mm 0.20 in5.1 mm
09:35 AM 44.4°F6.9°C 39.2°F4.0°C 82% 3.5 mph ENE5.6 kmh ENE 3.5 mph5.6 kmh 29.43 in996.6 mb - 0.01 in0.3 mm 0.21 in5.3 mm
09:40 AM 44.6°F7.0°C 39.4°F4.1°C 82% 2.3 mph ESE3.7 kmh ESE 3.5 mph5.6 kmh 29.43 in996.6 mb - 0.01 in0.3 mm 0.21 in5.3 mm
09:45 AM 44.6°F7.0°C 39.4°F4.1°C 82% 2.3 mph SE3.7 kmh SE 5.8 mph9.3 kmh 29.43 in996.6 mb - 0.00 in0.0 mm 0.21 in5.3 mm
09:50 AM 44.6°F7.0°C 39.5°F4.2°C 82% 4.6 mph E7.4 kmh E 4.6 mph7.4 kmh 29.43 in996.6 mb - 0.00 in0.0 mm 0.21 in5.3 mm
09:55 AM 44.6°F7.0°C 39.4°F4.1°C 82% 1.2 mph ESE1.9 kmh ESE 1.2 mph1.9 kmh 29.43 in996.6 mb - 0.00 in0.0 mm 0.21 in5.3 mm
10:00 AM 44.6°F7.0°C 39.4°F4.1°C 82% 2.3 mph E3.7 kmh E 2.3 mph3.7 kmh 29.43 in996.6 mb - 0.00 in0.0 mm 0.21 in5.3 mm
10:05 AM 44.6°F7.0°C 39.4°F4.1°C 82% 1.2 mph E1.9 kmh E 2.3 mph3.7 kmh 29.43 in996.6 mb - 0.01 in0.3 mm 0.22 in5.6 mm
10:10 AM 44.8°F7.1°C 39.6°F4.2°C 82% 2.3 mph ESE3.7 kmh ESE 3.5 mph5.6 kmh 29.43 in996.6 mb - 0.00 in0.0 mm 0.22 in5.6 mm
10:15 AM 44.9°F7.2°C 39.7°F4.3°C 82% 1.2 mph ESE1.9 kmh ESE 2.3 mph3.7 kmh 29.43 in996.6 mb - 0.01 in0.3 mm 0.22 in5.6 mm
10:20 AM 44.8°F7.1°C 39.6°F4.2°C 82% 1.2 mph ESE1.9 kmh ESE 2.3 mph3.7 kmh 29.42 in996.3 mb - 0.00 in0.0 mm 0.22 in5.6 mm
10:25 AM 44.8°F7.1°C 39.6°F4.2°C 82% Calm Calm 1.2 mph1.9 kmh 29.42 in996.3 mb - 0.00 in0.0 mm 0.22 in5.6 mm
10:30 AM 44.8°F7.1°C 39.6°F4.2°C 82% Calm Calm 1.2 mph1.9 kmh 29.41 in995.9 mb - 0.00 in0.0 mm 0.22 in5.6 mm
10:35 AM 45.0°F7.2°C 39.9°F4.4°C 82% Calm Calm -- 29.42 in996.3 mb - 0.00 in0.0 mm 0.22 in5.6 mm
10:40 AM 45.2°F7.3°C 40.0°F4.4°C 82% Calm Calm 1.2 mph1.9 kmh 29.41 in995.9 mb - 0.00 in0.0 mm 0.22 in5.6 mm
10:45 AM 45.3°F7.4°C 40.1°F4.5°C 82% 1.2 mph E1.9 kmh E 2.3 mph3.7 kmh 29.41 in995.9 mb - 0.01 in0.3 mm 0.23 in5.8 mm
10:50 AM 45.2°F7.3°C 40.0°F4.4°C 82% Calm Calm -- 29.41 in995.9 mb - 0.00 in0.0 mm 0.23 in5.8 mm
10:55 AM 45.2°F7.3°C 40.0°F4.4°C 82% Calm Calm -- 29.41 in995.9 mb - 0.01 in0.3 mm 0.24 in6.1 mm
11:00 AM 45.4°F7.4°C 40.2°F4.6°C 82% 1.2 mph ENE1.9 kmh ENE 2.3 mph3.7 kmh 29.41 in995.9 mb - 0.00 in0.0 mm 0.24 in6.1 mm
11:05 AM 45.3°F7.4°C 40.1°F4.5°C 82% Calm Calm 2.3 mph3.7 kmh 29.41 in995.9 mb - 0.02 in0.5 mm 0.26 in6.6 mm
11:10 AM 45.3°F7.4°C 40.5°F4.7°C 83% Calm Calm 2.3 mph3.7 kmh 29.41 in995.9 mb - 0.02 in0.5 mm 0.27 in6.9 mm
11:15 AM 45.6°F7.6°C 40.4°F4.7°C 82% Calm Calm -- 29.40 in995.6 mb - 0.02 in0.5 mm 0.29 in7.4 mm
11:20 AM 45.5°F7.5°C 40.6°F4.8°C 83% Calm Calm -- 29.41 in995.9 mb - 0.01 in0.3 mm 0.30 in7.6 mm
11:25 AM 45.5°F7.5°C 40.3°F4.6°C 82% Calm Calm 2.3 mph3.7 kmh 29.41 in995.9 mb - 0.01 in0.3 mm 0.31 in7.9 mm
11:30 AM 45.7°F7.6°C 40.9°F4.9°C 83% 1.2 mph WSW1.9 kmh WSW 2.3 mph3.7 kmh 29.40 in995.6 mb - 0.02 in0.5 mm 0.32 in8.1 mm
11:35 AM 46.7°F8.2°C 41.8°F5.4°C 83% 6.9 mph SW11.1 kmh SW 13.8 mph22.2 kmh 29.41 in995.9 mb - 0.02 in0.5 mm 0.35 in8.9 mm
11:40 AM 47.6°F8.7°C 42.7°F5.9°C 83% 6.9 mph WSW11.1 kmh WSW 11.5 mph18.5 kmh 29.41 in995.9 mb - 0.02 in0.5 mm 0.36 in9.1 mm
11:45 AM 48.0°F8.9°C 43.1°F6.2°C 83% 9.2 mph SW14.8 kmh SW 19.6 mph31.5 kmh 29.41 in995.9 mb - 0.01 in0.3 mm 0.36 in9.1 mm
11:50 AM 48.3°F9.1°C 43.4°F6.3°C 83% 4.6 mph WSW7.4 kmh WSW 8.1 mph13.0 kmh 29.41 in995.9 mb - 0.00 in0.0 mm 0.36 in9.1 mm
11:55 AM 48.3°F9.1°C 43.4°F6.3°C 83% 9.2 mph WSW14.8 kmh WSW 11.5 mph18.5 kmh 29.41 in995.9 mb - 0.02 in0.5 mm 0.38 in9.7 mm
12:00 PM 48.2°F9.0°C 43.3°F6.3°C 83% 5.8 mph WSW9.3 kmh WSW 9.2 mph14.8 kmh 29.41 in995.9 mb - 0.02 in0.5 mm 0.39 in9.9 mm
12:05 PM 48.2°F9.0°C 43.3°F6.3°C 83% 6.9 mph WSW11.1 kmh WSW 9.2 mph14.8 kmh 29.41 in995.9 mb - 0.02 in0.5 mm 0.40 in10.2 mm
12:10 PM 48.1°F8.9°C 42.9°F6.1°C 82% 6.9 mph WSW11.1 kmh WSW 10.4 mph16.7 kmh 29.41 in995.9 mb - 0.01 in0.3 mm 0.40 in10.2 mm
12:15 PM 47.9°F8.8°C 42.7°F5.9°C 82% 4.6 mph W7.4 kmh W 6.9 mph11.1 kmh 29.41 in995.9 mb - 0.00 in0.0 mm 0.40 in10.2 mm
12:20 PM 48.0°F8.9°C 42.8°F6.0°C 82% 6.9 mph W11.1 kmh W 10.4 mph16.7 kmh 29.41 in995.9 mb - 0.00 in0.0 mm 0.40 in10.2 mm
12:25 PM 48.2°F9.0°C 43.0°F6.1°C 82% 5.8 mph W9.3 kmh W 11.5 mph18.5 kmh 29.41 in995.9 mb - 0.00 in0.0 mm 0.40 in10.2 mm
12:30 PM 48.3°F9.1°C 43.1°F6.2°C 82% 5.8 mph W9.3 kmh W 8.1 mph13.0 kmh 29.41 in995.9 mb - 0.00 in0.0 mm 0.40 in10.2 mm
12:35 PM 48.3°F9.1°C 42.7°F5.9°C 81% 9.2 mph WSW14.8 kmh WSW 12.7 mph20.4 kmh 29.41 in995.9 mb - 0.00 in0.0 mm 0.40 in10.2 mm
12:40 PM 48.3°F9.1°C 42.7°F5.9°C 81% 9.2 mph SW14.8 kmh SW 11.5 mph18.5 kmh 29.41 in995.9 mb - 0.00 in0.0 mm 0.40 in10.2 mm
12:45 PM 48.5°F9.2°C 42.6°F5.9°C 80% 8.1 mph WSW13.0 kmh WSW 13.8 mph22.2 kmh 29.41 in995.9 mb - 0.00 in0.0 mm 0.40 in10.2 mm
12:50 PM 48.8°F9.3°C 42.6°F5.9°C 79% 9.2 mph WSW14.8 kmh WSW 13.8 mph22.2 kmh 29.41 in995.9 mb - 0.00 in0.0 mm 0.40 in10.2 mm
12:55 PM 49.0°F9.4°C 42.4°F5.8°C 78% 10.4 mph WSW16.7 kmh WSW 16.1 mph25.9 kmh 29.41 in995.9 mb - 0.00 in0.0 mm 0.40 in10.2 mm
01:00 PM 49.1°F9.5°C 42.5°F5.8°C 78% 9.2 mph SW14.8 kmh SW 15.0 mph24.1 kmh 29.41 in995.9 mb - 0.00 in0.0 mm 0.40 in10.2 mm
01:05 PM 49.2°F9.6°C 42.6°F5.9°C 78% 11.5 mph WSW18.5 kmh WSW 18.4 mph29.6 kmh 29.41 in995.9 mb - 0.00 in0.0 mm 0.40 in10.2 mm
01:10 PM 49.3°F9.6°C 42.7°F5.9°C 78% 10.4 mph WSW16.7 kmh WSW 17.3 mph27.8 kmh 29.41 in995.9 mb - 0.00 in0.0 mm 0.40 in10.2 mm
01:15 PM 49.6°F9.8°C 42.6°F5.9°C 77% 9.2 mph WSW14.8 kmh WSW 15.0 mph24.1 kmh 29.41 in995.9 mb - 0.00 in0.0 mm 0.40 in10.2 mm
01:20 PM 49.6°F9.8°C 42.7°F5.9°C 77% 8.1 mph WSW13.0 kmh WSW 16.1 mph25.9 kmh 29.41 in995.9 mb - 0.00 in0.0 mm 0.40 in10.2 mm
01:25 PM 49.6°F9.8°C 42.7°F5.9°C 77% 5.8 mph WSW9.3 kmh WSW 8.1 mph13.0 kmh 29.41 in995.9 mb - 0.00 in0.0 mm 0.40 in10.2 mm
01:30 PM 49.6°F9.8°C 42.7°F5.9°C 77% 6.9 mph WSW11.1 kmh WSW 9.2 mph14.8 kmh 29.41 in995.9 mb - 0.00 in0.0 mm 0.40 in10.2 mm
01:35 PM 49.6°F9.8°C 42.7°F5.9°C 77% 8.1 mph WSW13.0 kmh WSW 10.4 mph16.7 kmh 29.41 in995.9 mb - 0.00 in0.0 mm 0.40 in10.2 mm
01:40 PM 49.8°F9.9°C 42.9°F6.1°C 77% 8.1 mph WSW13.0 kmh WSW 11.5 mph18.5 kmh 29.41 in995.9 mb - 0.00 in0.0 mm 0.40 in10.2 mm
01:45 PM 49.9°F9.9°C 42.6°F5.9°C 76% 10.4 mph WSW16.7 kmh WSW 13.8 mph22.2 kmh 29.41 in995.9 mb - 0.00 in0.0 mm 0.40 in10.2 mm
01:50 PM 49.9°F9.9°C 42.6°F5.9°C 76% 6.9 mph WSW11.1 kmh WSW 11.5 mph18.5 kmh 29.41 in995.9 mb - 0.00 in0.0 mm 0.40 in10.2 mm
01:55 PM 49.8°F9.9°C 42.5°F5.8°C 76% 10.4 mph WSW16.7 kmh WSW 12.7 mph20.4 kmh 29.41 in995.9 mb - 0.00 in0.0 mm 0.40 in10.2 mm
02:00 PM 49.6°F9.8°C 42.3°F5.7°C 76% 8.1 mph W13.0 kmh W 11.5 mph18.5 kmh 29.41 in995.9 mb - 0.00 in0.0 mm 0.40 in10.2 mm
02:05 PM 49.4°F9.7°C 42.2°F5.7°C 76% 4.6 mph WSW7.4 kmh WSW 8.1 mph13.0 kmh 29.41 in995.9 mb - 0.00 in0.0 mm 0.40 in10.2 mm
02:10 PM 49.2°F9.6°C 42.3°F5.7°C 77% 3.5 mph WSW5.6 kmh WSW 5.8 mph9.3 kmh 29.41 in995.9 mb - 0.00 in0.0 mm 0.40 in10.2 mm
02:15 PM 49.0°F9.4°C 42.1°F5.6°C 77% 6.9 mph W11.1 kmh W 11.5 mph18.5 kmh 29.42 in996.3 mb - 0.00 in0.0 mm 0.40 in10.2 mm
02:20 PM 49.0°F9.4°C 42.1°F5.6°C 77% 4.6 mph WSW7.4 kmh WSW 8.1 mph13.0 kmh 29.41 in995.9 mb - 0.00 in0.0 mm 0.40 in10.2 mm
02:25 PM 48.9°F9.4°C 42.0°F5.6°C 77% 5.8 mph WSW9.3 kmh WSW 5.8 mph9.3 kmh 29.41 in995.9 mb - 0.00 in0.0 mm 0.40 in10.2 mm
02:30 PM 48.9°F9.4°C 42.0°F5.6°C 77% 2.3 mph SW3.7 kmh SW 4.6 mph7.4 kmh 29.41 in995.9 mb - 0.00 in0.0 mm 0.40 in10.2 mm
02:35 PM 49.1°F9.5°C 42.2°F5.7°C 77% 2.3 mph WSW3.7 kmh WSW 3.5 mph5.6 kmh 29.41 in995.9 mb - 0.00 in0.0 mm 0.40 in10.2 mm
02:40 PM 49.7°F9.8°C 42.4°F5.8°C 76% 1.2 mph WSW1.9 kmh WSW 3.5 mph5.6 kmh 29.41 in995.9 mb - 0.00 in0.0 mm 0.40 in10.2 mm
02:45 PM 50.4°F10.2°C 43.1°F6.2°C 76% 3.5 mph SW5.6 kmh SW 6.9 mph11.1 kmh 29.41 in995.9 mb - 0.00 in0.0 mm 0.40 in10.2 mm
02:50 PM 50.8°F10.4°C 43.5°F6.4°C 76% 5.8 mph WSW9.3 kmh WSW 8.1 mph13.0 kmh 29.41 in995.9 mb - 0.00 in0.0 mm 0.40 in10.2 mm
02:55 PM 51.0°F10.6°C 43.7°F6.5°C 76% 4.6 mph WSW7.4 kmh WSW 6.9 mph11.1 kmh 29.41 in995.9 mb - 0.00 in0.0 mm 0.40 in10.2 mm
03:00 PM 51.1°F10.6°C 43.8°F6.6°C 76% 3.5 mph WSW5.6 kmh WSW 5.8 mph9.3 kmh 29.41 in995.9 mb - 0.00 in0.0 mm 0.40 in10.2 mm
03:05 PM 50.7°F10.4°C 43.4°F6.3°C 76% 8.1 mph WSW13.0 kmh WSW 11.5 mph18.5 kmh 29.41 in995.9 mb - 0.00 in0.0 mm 0.40 in10.2 mm
03:10 PM 50.1°F10.1°C 42.8°F6.0°C 76% 6.9 mph WSW11.1 kmh WSW 19.6 mph31.5 kmh 29.41 in995.9 mb - 0.00 in0.0 mm 0.40 in10.2 mm
03:15 PM 49.6°F9.8°C 42.3°F5.7°C 76% 6.9 mph SW11.1 kmh SW 13.8 mph22.2 kmh 29.41 in995.9 mb - 0.00 in0.0 mm 0.40 in10.2 mm
03:20 PM 49.4°F9.7°C 42.1°F5.6°C 76% 10.4 mph WSW16.7 kmh WSW 11.5 mph18.5 kmh 29.41 in995.9 mb - 0.00 in0.0 mm 0.40 in10.2 mm
03:25 PM 49.2°F9.6°C 42.0°F5.6°C 76% 8.1 mph WSW13.0 kmh WSW 13.8 mph22.2 kmh 29.41 in995.9 mb - 0.00 in0.0 mm 0.40 in10.2 mm
03:30 PM 49.0°F9.4°C 41.8°F5.4°C 76% 6.9 mph WSW11.1 kmh WSW 11.5 mph18.5 kmh 29.41 in995.9 mb - 0.00 in0.0 mm 0.40 in10.2 mm
03:35 PM 48.8°F9.3°C 41.6°F5.3°C 76% 11.5 mph WSW18.5 kmh WSW 16.1 mph25.9 kmh 29.41 in995.9 mb - 0.00 in0.0 mm 0.40 in10.2 mm
03:40 PM 48.6°F9.2°C 41.4°F5.2°C 76% 8.1 mph WSW13.0 kmh WSW 9.2 mph14.8 kmh 29.41 in995.9 mb - 0.00 in0.0 mm 0.40 in10.2 mm
03:45 PM 48.4°F9.1°C 41.2°F5.1°C 76% 5.8 mph SW9.3 kmh SW 8.1 mph13.0 kmh 29.41 in995.9 mb - 0.00 in0.0 mm 0.40 in10.2 mm
03:50 PM 48.2°F9.0°C 41.0°F5.0°C 76% 4.6 mph SW7.4 kmh SW 9.2 mph14.8 kmh 29.41 in995.9 mb - 0.00 in0.0 mm 0.40 in10.2 mm
03:55 PM 48.1°F8.9°C 40.9°F4.9°C 76% 3.5 mph W5.6 kmh W 6.9 mph11.1 kmh 29.41 in995.9 mb - 0.00 in0.0 mm 0.40 in10.2 mm
04:00 PM 47.9°F8.8°C 40.7°F4.8°C 76% 3.5 mph W5.6 kmh W 3.5 mph5.6 kmh 29.41 in995.9 mb - 0.00 in0.0 mm 0.40 in10.2 mm
04:05 PM 47.8°F8.8°C 40.6°F4.8°C 76% 2.3 mph W3.7 kmh W 3.5 mph5.6 kmh 29.41 in995.9 mb - 0.00 in0.0 mm 0.40 in10.2 mm
04:10 PM 47.6°F8.7°C 40.4°F4.7°C 76% 2.3 mph WSW3.7 kmh WSW 3.5 mph5.6 kmh 29.41 in995.9 mb - 0.00 in0.0 mm 0.40 in10.2 mm
04:15 PM 47.4°F8.6°C 40.2°F4.6°C 76% 5.8 mph W9.3 kmh W 9.2 mph14.8 kmh 29.41 in995.9 mb - 0.00 in0.0 mm 0.40 in10.2 mm
04:20 PM 47.3°F8.5°C 40.2°F4.6°C 76% 2.3 mph WSW3.7 kmh WSW 5.8 mph9.3 kmh 29.41 in995.9 mb - 0.00 in0.0 mm 0.40 in10.2 mm
04:25 PM 47.2°F8.4°C 40.0°F4.4°C 76% 3.5 mph WSW5.6 kmh WSW 4.6 mph7.4 kmh 29.41 in995.9 mb - 0.00 in0.0 mm 0.40 in10.2 mm
04:30 PM 47.1°F8.4°C 39.9°F4.4°C 76% 1.2 mph WSW1.9 kmh WSW 2.3 mph3.7 kmh 29.41 in995.9 mb - 0.00 in0.0 mm 0.40 in10.2 mm
04:35 PM 47.0°F8.3°C 39.8°F4.3°C 76% 1.2 mph WSW1.9 kmh WSW 2.3 mph3.7 kmh 29.41 in995.9 mb - 0.00 in0.0 mm 0.40 in10.2 mm
04:40 PM 46.8°F8.2°C 39.7°F4.3°C 76% 2.3 mph SW3.7 kmh SW 3.5 mph5.6 kmh 29.41 in995.9 mb - 0.00 in0.0 mm 0.40 in10.2 mm
04:45 PM 46.7°F8.2°C 39.5°F4.2°C 76% 3.5 mph WSW5.6 kmh WSW 4.6 mph7.4 kmh 29.42 in996.3 mb - 0.00 in0.0 mm 0.40 in10.2 mm
04:50 PM 46.7°F8.2°C 39.5°F4.2°C 76% 5.8 mph SW9.3 kmh SW 9.2 mph14.8 kmh 29.42 in996.3 mb - 0.00 in0.0 mm 0.40 in10.2 mm
04:55 PM 46.7°F8.2°C 39.5°F4.2°C 76% 3.5 mph SW5.6 kmh SW 3.5 mph5.6 kmh 29.43 in996.6 mb - 0.00 in0.0 mm 0.40 in10.2 mm
05:00 PM 46.4°F8.0°C 39.6°F4.2°C 77% 18.4 mph WSW29.6 kmh WSW 21.9 mph35.2 kmh 29.44 in997.0 mb - 0.01 in0.3 mm 0.41 in10.4 mm
05:05 PM 46.3°F7.9°C 39.1°F3.9°C 76% 10.4 mph WSW16.7 kmh WSW 15.0 mph24.1 kmh 29.44 in997.0 mb - 0.00 in0.0 mm 0.41 in10.4 mm
05:10 PM 45.9°F7.7°C 38.8°F3.8°C 76% 12.7 mph SW20.4 kmh SW 23.0 mph37.0 kmh 29.43 in996.6 mb - 0.00 in0.0 mm 0.41 in10.4 mm
05:15 PM 45.6°F7.6°C 38.5°F3.6°C 76% 9.2 mph SW14.8 kmh SW 13.8 mph22.2 kmh 29.43 in996.6 mb - 0.00 in0.0 mm 0.41 in10.4 mm
05:20 PM 45.6°F7.6°C 38.5°F3.6°C 76% 13.8 mph WSW22.2 kmh WSW 21.9 mph35.2 kmh 29.42 in996.3 mb - 0.00 in0.0 mm 0.41 in10.4 mm
05:25 PM 46.4°F8.0°C 38.6°F3.7°C 74% 8.1 mph WSW13.0 kmh WSW 10.4 mph16.7 kmh 29.43 in996.6 mb - 0.00 in0.0 mm 0.41 in10.4 mm
05:30 PM 46.4°F8.0°C 38.6°F3.7°C 74% 6.9 mph SW11.1 kmh SW 12.7 mph20.4 kmh 29.43 in996.6 mb - 0.00 in0.0 mm 0.41 in10.4 mm
05:35 PM 46.3°F7.9°C 38.4°F3.6°C 74% 9.2 mph WSW14.8 kmh WSW 16.1 mph25.9 kmh 29.43 in996.6 mb - 0.00 in0.0 mm 0.41 in10.4 mm
05:40 PM 46.2°F7.9°C 38.7°F3.7°C 75% 12.7 mph WSW20.4 kmh WSW 20.7 mph33.3 kmh 29.43 in996.6 mb - 0.00 in0.0 mm 0.41 in10.4 mm
05:45 PM 46.0°F7.8°C 38.9°F3.8°C 76% 10.4 mph WSW16.7 kmh WSW 17.3 mph27.8 kmh 29.44 in997.0 mb - 0.00 in0.0 mm 0.41 in10.4 mm
05:50 PM 45.6°F7.6°C 38.5°F3.6°C 76% 12.7 mph WSW20.4 kmh WSW 20.7 mph33.3 kmh 29.44 in997.0 mb - 0.00 in0.0 mm 0.41 in10.4 mm
05:55 PM 45.4°F7.4°C 38.3°F3.5°C 76% 10.4 mph WSW16.7 kmh WSW 19.6 mph31.5 kmh 29.44 in997.0 mb - 0.00 in0.0 mm 0.41 in10.4 mm
06:00 PM 45.2°F7.3°C 38.1°F3.4°C 76% 8.1 mph WSW13.0 kmh WSW 15.0 mph24.1 kmh 29.45 in997.3 mb - 0.00 in0.0 mm 0.41 in10.4 mm
06:05 PM 45.0°F7.2°C 37.9°F3.3°C 76% 10.4 mph WSW16.7 kmh WSW 11.5 mph18.5 kmh 29.45 in997.3 mb - 0.00 in0.0 mm 0.41 in10.4 mm
06:10 PM 44.9°F7.2°C 37.8°F3.2°C 76% 9.2 mph WSW14.8 kmh WSW 11.5 mph18.5 kmh 29.45 in997.3 mb - 0.00 in0.0 mm 0.41 in10.4 mm
06:15 PM 44.8°F7.1°C 37.7°F3.2°C 76% 9.2 mph WSW14.8 kmh WSW 19.6 mph31.5 kmh 29.46 in997.6 mb - 0.00 in0.0 mm 0.41 in10.4 mm
06:20 PM 44.9°F7.2°C 37.8°F3.2°C 76% 10.4 mph WSW16.7 kmh WSW 15.0 mph24.1 kmh 29.46 in997.6 mb - 0.00 in0.0 mm 0.41 in10.4 mm
06:25 PM 44.9°F7.2°C 37.8°F3.2°C 76% 12.7 mph WSW20.4 kmh WSW 19.6 mph31.5 kmh 29.46 in997.6 mb - 0.00 in0.0 mm 0.41 in10.4 mm
06:30 PM 44.9°F7.2°C 37.8°F3.2°C 76% 9.2 mph WSW14.8 kmh WSW 11.5 mph18.5 kmh 29.46 in997.6 mb - 0.00 in0.0 mm 0.41 in10.4 mm
06:35 PM 44.8°F7.1°C 37.7°F3.2°C 76% 11.5 mph WSW18.5 kmh WSW 19.6 mph31.5 kmh 29.46 in997.6 mb - 0.00 in0.0 mm 0.41 in10.4 mm
06:40 PM 44.9°F7.2°C 37.8°F3.2°C 76% 8.1 mph WSW13.0 kmh WSW 10.4 mph16.7 kmh 29.47 in998.0 mb - 0.00 in0.0 mm 0.41 in10.4 mm
06:45 PM 44.8°F7.1°C 37.7°F3.2°C 76% 10.4 mph SW16.7 kmh SW 17.3 mph27.8 kmh 29.47 in998.0 mb - 0.00 in0.0 mm 0.41 in10.4 mm
06:50 PM 44.7°F7.1°C 37.9°F3.3°C 77% 8.1 mph WSW13.0 kmh WSW 19.6 mph31.5 kmh 29.47 in998.0 mb - 0.00 in0.0 mm 0.41 in10.4 mm
06:55 PM 44.5°F6.9°C 37.4°F3.0°C 76% 8.1 mph WSW13.0 kmh WSW 11.5 mph18.5 kmh 29.47 in998.0 mb - 0.00 in0.0 mm 0.41 in10.4 mm
07:00 PM 44.2°F6.8°C 37.4°F3.0°C 77% 9.2 mph SW14.8 kmh SW 11.5 mph18.5 kmh 29.47 in998.0 mb - 0.00 in0.0 mm 0.41 in10.4 mm
07:05 PM 44.0°F6.7°C 37.3°F2.9°C 77% 8.1 mph WSW13.0 kmh WSW 12.7 mph20.4 kmh 29.47 in998.0 mb - 0.00 in0.0 mm 0.41 in10.4 mm
07:10 PM 43.9°F6.6°C 36.8°F2.7°C 76% 5.8 mph WSW9.3 kmh WSW 10.4 mph16.7 kmh 29.48 in998.3 mb - 0.00 in0.0 mm 0.41 in10.4 mm
07:15 PM 43.9°F6.6°C 36.8°F2.7°C 76% 9.2 mph WSW14.8 kmh WSW 12.7 mph20.4 kmh 29.48 in998.3 mb - 0.00 in0.0 mm 0.41 in10.4 mm
07:20 PM 44.0°F6.7°C 36.9°F2.7°C 76% 8.1 mph WSW13.0 kmh WSW 11.5 mph18.5 kmh 29.48 in998.3 mb - 0.00 in0.0 mm 0.41 in10.4 mm
07:25 PM 44.0°F6.7°C 36.9°F2.7°C 76% 10.4 mph WSW16.7 kmh WSW 19.6 mph31.5 kmh 29.48 in998.3 mb - 0.00 in0.0 mm 0.41 in10.4 mm
07:30 PM 44.1°F6.7°C 37.3°F2.9°C 77% 10.4 mph WSW16.7 kmh WSW 20.7 mph33.3 kmh 29.48 in998.3 mb - 0.00 in0.0 mm 0.41 in10.4 mm
07:35 PM 44.2°F6.8°C 37.1°F2.8°C 76% 6.9 mph WSW11.1 kmh WSW 11.5 mph18.5 kmh 29.49 in998.6 mb - 0.00 in0.0 mm 0.41 in10.4 mm
07:40 PM 44.2°F6.8°C 37.1°F2.8°C 76% 8.1 mph SW13.0 kmh SW 12.7 mph20.4 kmh 29.48 in998.3 mb - 0.00 in0.0 mm 0.41 in10.4 mm
07:45 PM 44.2°F6.8°C 37.4°F3.0°C 77% 10.4 mph WSW16.7 kmh WSW 16.1 mph25.9 kmh 29.49 in998.6 mb - 0.00 in0.0 mm 0.41 in10.4 mm
07:50 PM 44.2°F6.8°C 37.1°F2.8°C 76% 10.4 mph SW16.7 kmh SW 16.1 mph25.9 kmh 29.49 in998.6 mb - 0.00 in0.0 mm 0.41 in10.4 mm
07:55 PM 44.2°F6.8°C 37.2°F2.9°C 76% 11.5 mph SW18.5 kmh SW 19.6 mph31.5 kmh 29.49 in998.6 mb - 0.00 in0.0 mm 0.41 in10.4 mm
08:00 PM 44.2°F6.8°C 37.2°F2.9°C 76% 9.2 mph WSW14.8 kmh WSW 11.5 mph18.5 kmh 29.48 in998.3 mb - 0.00 in0.0 mm 0.41 in10.4 mm
08:05 PM 44.1°F6.7°C 37.3°F2.9°C 77% 8.1 mph SW13.0 kmh SW 16.1 mph25.9 kmh 29.48 in998.3 mb - 0.00 in0.0 mm 0.41 in10.4 mm
08:10 PM 44.0°F6.7°C 37.3°F2.9°C 77% 10.4 mph SW16.7 kmh SW 13.8 mph22.2 kmh 29.48 in998.3 mb - 0.00 in0.0 mm 0.41 in10.4 mm
08:15 PM 43.9°F6.6°C 36.8°F2.7°C 76% 10.4 mph SW16.7 kmh SW 16.1 mph25.9 kmh 29.48 in998.3 mb - 0.00 in0.0 mm 0.41 in10.4 mm
08:20 PM 43.9°F6.6°C 36.8°F2.7°C 76% 10.4 mph SW16.7 kmh SW 11.5 mph18.5 kmh 29.48 in998.3 mb - 0.00 in0.0 mm 0.41 in10.4 mm
08:25 PM 43.8°F6.6°C 36.8°F2.7°C 76% 8.1 mph WSW13.0 kmh WSW 9.2 mph14.8 kmh 29.48 in998.3 mb - 0.00 in0.0 mm 0.41 in10.4 mm
08:30 PM 43.7°F6.5°C 36.7°F2.6°C 76% 5.8 mph WSW9.3 kmh WSW 9.2 mph14.8 kmh 29.49 in998.6 mb - 0.00 in0.0 mm 0.41 in10.4 mm
08:35 PM 43.6°F6.4°C 36.9°F2.7°C 77% 4.6 mph WSW7.4 kmh WSW 5.8 mph9.3 kmh 29.49 in998.6 mb - 0.00 in0.0 mm 0.41 in10.4 mm
08:40 PM 43.4°F6.3°C 36.7°F2.6°C 77% 8.1 mph WSW13.0 kmh WSW 10.4 mph16.7 kmh 29.49 in998.6 mb - 0.00 in0.0 mm 0.41 in10.4 mm
08:45 PM 43.3°F6.3°C 36.6°F2.6°C 77% 8.1 mph WSW13.0 kmh WSW 11.5 mph18.5 kmh 29.49 in998.6 mb - 0.00 in0.0 mm 0.41 in10.4 mm
08:50 PM 43.2°F6.2°C 36.5°F2.5°C 77% 3.5 mph WSW5.6 kmh WSW 8.1 mph13.0 kmh 29.49 in998.6 mb - 0.00 in0.0 mm 0.41 in10.4 mm
08:55 PM 43.1°F6.2°C 36.4°F2.4°C 77% 4.6 mph WSW7.4 kmh WSW 8.1 mph13.0 kmh 29.48 in998.3 mb - 0.00 in0.0 mm 0.41 in10.4 mm
09:00 PM 43.1°F6.2°C 36.4°F2.4°C 77% 4.6 mph WSW7.4 kmh WSW 9.2 mph14.8 kmh 29.48 in998.3 mb - 0.00 in0.0 mm 0.41 in10.4 mm
09:05 PM 43.1°F6.2°C 36.4°F2.4°C 77% 8.1 mph SW13.0 kmh SW 13.8 mph22.2 kmh 29.48 in998.3 mb - 0.00 in0.0 mm 0.41 in10.4 mm
09:10 PM 43.3°F6.3°C 36.6°F2.6°C 77% 5.8 mph SW9.3 kmh SW 11.5 mph18.5 kmh 29.48 in998.3 mb - 0.00 in0.0 mm 0.41 in10.4 mm
09:15 PM 43.3°F6.3°C 36.6°F2.6°C 77% 6.9 mph SW11.1 kmh SW 10.4 mph16.7 kmh 29.49 in998.6 mb - 0.00 in0.0 mm 0.41 in10.4 mm
09:20 PM 43.4°F6.3°C 36.7°F2.6°C 77% 6.9 mph SW11.1 kmh SW 9.2 mph14.8 kmh 29.49 in998.6 mb - 0.00 in0.0 mm 0.41 in10.4 mm
09:25 PM 43.4°F6.3°C 36.7°F2.6°C 77% 3.5 mph SW5.6 kmh SW 6.9 mph11.1 kmh 29.49 in998.6 mb - 0.00 in0.0 mm 0.41 in10.4 mm
09:30 PM 43.4°F6.3°C 36.7°F2.6°C 77% 3.5 mph WSW5.6 kmh WSW 9.2 mph14.8 kmh 29.49 in998.6 mb - 0.00 in0.0 mm 0.41 in10.4 mm
09:35 PM 43.5°F6.4°C 36.8°F2.7°C 77% 4.6 mph SW7.4 kmh SW 12.7 mph20.4 kmh 29.49 in998.6 mb - 0.00 in0.0 mm 0.41 in10.4 mm
09:40 PM 43.5°F6.4°C 36.8°F2.7°C 77% 3.5 mph SW5.6 kmh SW 4.6 mph7.4 kmh 29.48 in998.3 mb - 0.00 in0.0 mm 0.41 in10.4 mm
09:45 PM 43.4°F6.3°C 36.7°F2.6°C 77% 3.5 mph SW5.6 kmh SW 6.9 mph11.1 kmh 29.48 in998.3 mb - 0.00 in0.0 mm 0.41 in10.4 mm
09:50 PM 43.4°F6.3°C 36.7°F2.6°C 77% 3.5 mph SW5.6 kmh SW 4.6 mph7.4 kmh 29.48 in998.3 mb - 0.00 in0.0 mm 0.41 in10.4 mm
09:55 PM 43.4°F6.3°C 36.7°F2.6°C 77% 2.3 mph SSW3.7 kmh SSW 3.5 mph5.6 kmh 29.48 in998.3 mb - 0.00 in0.0 mm 0.41 in10.4 mm
10:00 PM 43.3°F6.3°C 36.6°F2.6°C 77% 1.2 mph SW1.9 kmh SW 3.5 mph5.6 kmh 29.49 in998.6 mb - 0.00 in0.0 mm 0.41 in10.4 mm
10:05 PM 43.3°F6.3°C 36.5°F2.5°C 77% Calm Calm -- 29.48 in998.3 mb - 0.00 in0.0 mm 0.41 in10.4 mm
10:10 PM 43.2°F6.2°C 36.5°F2.5°C 77% Calm Calm -- 29.48 in998.3 mb - 0.00 in0.0 mm 0.41 in10.4 mm
10:15 PM 43.1°F6.2°C 36.4°F2.4°C 77% Calm Calm -- 29.48 in998.3 mb - 0.00 in0.0 mm 0.41 in10.4 mm
10:20 PM 43.0°F6.1°C 36.3°F2.4°C 77% Calm Calm -- 29.48 in998.3 mb - 0.00 in0.0 mm 0.41 in10.4 mm
10:25 PM 42.9°F6.1°C 36.2°F2.3°C 77% 2.3 mph S3.7 kmh S 3.5 mph5.6 kmh 29.47 in998.0 mb - 0.00 in0.0 mm 0.41 in10.4 mm
10:30 PM 42.8°F6.0°C 36.1°F2.3°C 77% 2.3 mph SE3.7 kmh SE 4.6 mph7.4 kmh 29.48 in998.3 mb - 0.00 in0.0 mm 0.41 in10.4 mm
10:35 PM 42.8°F6.0°C 36.1°F2.3°C 77% 2.3 mph E3.7 kmh E 6.9 mph11.1 kmh 29.48 in998.3 mb - 0.00 in0.0 mm 0.41 in10.4 mm
10:40 PM 42.7°F5.9°C 36.0°F2.2°C 77% 3.5 mph E5.6 kmh E 4.6 mph7.4 kmh 29.48 in998.3 mb - 0.00 in0.0 mm 0.41 in10.4 mm
10:45 PM 42.8°F6.0°C 36.1°F2.3°C 77% Calm Calm 1.2 mph1.9 kmh 29.48 in998.3 mb - 0.00 in0.0 mm 0.41 in10.4 mm
10:50 PM 42.9°F6.1°C 36.1°F2.3°C 77% Calm Calm 1.2 mph1.9 kmh 29.47 in998.0 mb - 0.00 in0.0 mm 0.41 in10.4 mm
10:55 PM 43.0°F6.1°C 36.3°F2.4°C 77% Calm Calm -- 29.47 in998.0 mb - 0.00 in0.0 mm 0.41 in10.4 mm
11:00 PM 43.1°F6.2°C 36.4°F2.4°C 77% 3.5 mph SE5.6 kmh SE 3.5 mph5.6 kmh 29.47 in998.0 mb - 0.00 in0.0 mm 0.41 in10.4 mm
11:05 PM 43.3°F6.3°C 36.6°F2.6°C 77% 5.8 mph E9.3 kmh E 6.9 mph11.1 kmh 29.47 in998.0 mb - 0.00 in0.0 mm 0.41 in10.4 mm
11:10 PM 43.4°F6.3°C 36.7°F2.6°C 77% 4.6 mph ESE7.4 kmh ESE 8.1 mph13.0 kmh 29.46 in997.6 mb - 0.00 in0.0 mm 0.41 in10.4 mm
11:15 PM 43.5°F6.4°C 36.8°F2.7°C 77% 5.8 mph ESE9.3 kmh ESE 9.2 mph14.8 kmh 29.46 in997.6 mb - 0.00 in0.0 mm 0.41 in10.4 mm
11:20 PM 43.5°F6.4°C 36.8°F2.7°C 77% 4.6 mph E7.4 kmh E 11.5 mph18.5 kmh 29.46 in997.6 mb - 0.00 in0.0 mm 0.41 in10.4 mm
11:25 PM 43.4°F6.3°C 36.7°F2.6°C 77% 8.1 mph E13.0 kmh E 11.5 mph18.5 kmh 29.45 in997.3 mb - 0.00 in0.0 mm 0.41 in10.4 mm
11:30 PM 43.3°F6.3°C 36.6°F2.6°C 77% 8.1 mph E13.0 kmh E 11.5 mph18.5 kmh 29.46 in997.6 mb - 0.00 in0.0 mm 0.41 in10.4 mm
11:35 PM 43.3°F6.3°C 36.6°F2.6°C 77% 6.9 mph E11.1 kmh E 9.2 mph14.8 kmh 29.45 in997.3 mb - 0.00 in0.0 mm 0.41 in10.4 mm
11:40 PM 43.3°F6.3°C 36.6°F2.6°C 77% 6.9 mph E11.1 kmh E 10.4 mph16.7 kmh 29.45 in997.3 mb - 0.00 in0.0 mm 0.41 in10.4 mm
11:45 PM 43.2°F6.2°C 36.5°F2.5°C 77% 5.8 mph E9.3 kmh E 8.1 mph13.0 kmh 29.44 in997.0 mb - 0.00 in0.0 mm 0.41 in10.4 mm
11:50 PM 43.1°F6.2°C 36.4°F2.4°C 77% 4.6 mph ESE7.4 kmh ESE 9.2 mph14.8 kmh 29.44 in997.0 mb - 0.00 in0.0 mm 0.41 in10.4 mm
11:55 PM 43.0°F6.1°C 36.3°F2.4°C 77% 6.9 mph E11.1 kmh E 10.4 mph16.7 kmh 29.43 in996.6 mb - 0.01 in0.3 mm 0.41 in10.4 mm